Russellville, Vermont
Current Conditions -  °F | °C
As of 3:55 AM on Wednesday 28 Jan 2015 (Local Time) from KRUT Reporting Station
Broken Clouds Broken Clouds  
Wind Chill: -11°   Ceiling: 12000
Heat Index:   Visibility: 10mi
Dew Point: -2°   Wind: 9mph
Humidity: 78%   Direction: 340°NNW
Pressure: 29.86"   Gusts: 20mph
Location:  43.5432°N, 72.8545°W
Report Text: KRUT 280855Z 34008G17KT 10SM BKN120 M16/M19 A2986 RMK AO1 52017
Loading
Personal Weather Stations






























Interactive Weather Map New forecast layout! Learn more

10-Day Weather Forecast

Advertisements
Track Severe Weather on mobile